Jhang Weather



Jhang's Current Weather

Temprature 6.11o clear sky

clear sky

Rain: 0 %

Min Temprature6.11o
Max Temprature6.11o
Humidity88
Wind Speed0.45 m/h
Sun Rise07:12:50
Sun Set17:25:58
Current Time: 18-Jan-2021 05:48:48
Lat/Lon: 33.6748, 72.6963




Jhang's Geo Location



Jhang's Weather Forecast

Time Overall Temp Min Temp Max Temp Humidity Wind Speed Rain
18-Jan-2021 (Mon)
08:00:00 clear sky 7.130 7.130 8.200 75 0.95 m/h 0 %
11:00:00 clear sky 13.580 13.580 15.640 47 1.67 m/h 0 %
14:00:00 clear sky 17.740 17.740 18.530 31 1.31 m/h 0 %
17:00:00 clear sky 14.860 14.860 14.930 38 1.74 m/h 0 %
20:00:00 clear sky 10.960 10.960 10.960 46 1.49 m/h 0 %
23:00:00 clear sky 9.410 9.410 9.410 50 1.42 m/h 0 %
19-Jan-2021 (Tue)
02:00:00 clear sky 8.270 8.270 8.270 54 1.54 m/h 0 %
05:00:00 clear sky 7.150 7.150 7.150 58 1.42 m/h 0 %
08:00:00 clear sky 8.090 8.090 8.090 53 1.8 m/h 0 %
11:00:00 clear sky 16.130 16.130 16.130 31 2.68 m/h 0 %
14:00:00 clear sky 19.490 19.490 19.490 24 3.54 m/h 0 %
17:00:00 clear sky 15.510 15.510 15.510 32 2.49 m/h 0 %
20:00:00 clear sky 10.960 10.960 10.960 41 1.36 m/h 0 %
23:00:00 clear sky 9.460 9.460 9.460 46 1.32 m/h 0 %
20-Jan-2021 (Wed)
02:00:00 clear sky 8.510 8.510 8.510 49 1.69 m/h 0 %
05:00:00 clear sky 7.590 7.590 7.590 51 2.3 m/h 0 %
08:00:00 clear sky 7.900 7.900 7.900 50 2.44 m/h 0 %
11:00:00 clear sky 16.080 16.080 16.080 29 3.68 m/h 0 %
14:00:00 clear sky 19.740 19.740 19.740 23 4.85 m/h 0 %
17:00:00 few clouds 15.780 15.780 15.780 31 3.22 m/h 0 %
20:00:00 broken clouds 12.030 12.030 12.030 38 2.36 m/h 0 %
23:00:00 scattered clouds 9.980 9.980 9.980 43 2.25 m/h 0 %
21-Jan-2021 (Thu)
02:00:00 broken clouds 8.710 8.710 8.710 46 2.45 m/h 0 %
05:00:00 broken clouds 7.740 7.740 7.740 46 2.5 m/h 0 %
08:00:00 overcast clouds 7.860 7.860 7.860 46 2.27 m/h 0 %
11:00:00 broken clouds 15.710 15.710 15.710 27 2.71 m/h 0 %
14:00:00 overcast clouds 18.670 18.670 18.670 23 2.98 m/h 0 %
17:00:00 overcast clouds 14.180 14.180 14.180 33 1.26 m/h 0 %
20:00:00 overcast clouds 10.210 10.210 10.210 40 1.07 m/h 0 %
23:00:00 broken clouds 9.810 9.810 9.810 42 1.83 m/h 0 %
22-Jan-2021 (Fri)
02:00:00 clear sky 9.510 9.510 9.510 45 2.22 m/h 0 %
05:00:00 scattered clouds 8.200 8.200 8.200 48 0.99 m/h 0 %
08:00:00 broken clouds 8.920 8.920 8.920 47 1.07 m/h 0 %
11:00:00 scattered clouds 17.230 17.230 17.230 27 0.77 m/h 0 %
14:00:00 clear sky 20.920 20.920 20.920 23 4.42 m/h 0 %
17:00:00 clear sky 16.840 16.840 16.840 31 3.99 m/h 0 %
20:00:00 clear sky 11.750 11.750 11.750 44 2.43 m/h 0 %
23:00:00 clear sky 10.360 10.360 10.360 48 2.09 m/h 0 %
23-Jan-2021 (Sat)
02:00:00 clear sky 9.220 9.220 9.220 51 1.67 m/h 0 %
05:00:00 clear sky 8.390 8.390 8.390 53 3.53 m/h 0 %

Famous Cities (60)